createdAt,value
2019-04-05T00:01:50.453Z,13.00
2019-04-05T00:06:54.103Z,13.00
2019-04-05T00:11:57.851Z,13.10
2019-04-05T00:17:01.453Z,13.00
2019-04-05T00:22:05.147Z,13.00
2019-04-05T00:27:08.852Z,13.00
2019-04-05T00:32:12.419Z,13.00
2019-04-05T00:37:16.012Z,13.00
2019-04-05T00:42:19.682Z,13.00
2019-04-05T00:47:23.353Z,13.00
2019-04-05T00:52:27.077Z,12.90
2019-04-05T00:57:30.720Z,13.00
2019-04-05T01:02:34.428Z,12.70
2019-04-05T01:07:38.153Z,12.70
2019-04-05T01:12:42.496Z,12.60
2019-04-05T01:17:46.231Z,12.60
2019-04-05T01:22:49.863Z,12.50
2019-04-05T01:27:53.582Z,12.60
2019-04-05T01:32:57.252Z,12.50
2019-04-05T01:38:00.964Z,12.50
2019-04-05T01:43:04.693Z,12.40
2019-04-05T01:48:08.423Z,12.50
2019-04-05T01:53:12.120Z,12.40
2019-04-05T01:58:15.786Z,12.30
2019-04-05T02:03:19.489Z,12.30
2019-04-05T02:08:23.215Z,12.20
2019-04-05T02:13:27.092Z,12.20
2019-04-05T02:18:30.880Z,12.10
2019-04-05T02:23:34.512Z,12.10
2019-04-05T02:28:38.225Z,12.10
2019-04-05T02:33:41.962Z,12.10
2019-04-05T02:38:45.681Z,12.20
2019-04-05T02:43:51.229Z,12.20
2019-04-05T02:48:55.781Z,12.00
2019-04-05T02:53:59.818Z,12.20
2019-04-05T02:59:03.950Z,12.30
2019-04-05T03:04:07.821Z,12.20
2019-04-05T03:09:12.442Z,12.30
2019-04-05T03:14:16.375Z,12.10
2019-04-05T03:19:23.028Z,12.10
2019-04-05T03:24:27.375Z,12.10
2019-04-05T03:29:32.072Z,12.20
2019-04-05T03:34:36.494Z,12.10
2019-04-05T03:39:40.621Z,12.10
2019-04-05T03:44:44.543Z,12.00
2019-04-05T03:49:48.369Z,12.00
2019-04-05T03:54:52.571Z,11.90
2019-04-05T03:59:56.287Z,11.80
2019-04-05T04:05:00.214Z,11.90
2019-04-05T04:10:04.961Z,11.90
2019-04-05T04:15:15.044Z,11.80
2019-04-05T04:20:33.793Z,11.70
2019-04-05T04:25:39.009Z,11.60
2019-04-05T04:30:42.852Z,11.80
2019-04-05T04:35:46.585Z,12.10
2019-04-05T04:40:50.426Z,12.40
2019-04-05T04:45:54.457Z,12.50
2019-04-05T04:50:58.818Z,11.90
2019-04-05T04:56:02.533Z,12.50
2019-04-05T05:01:06.521Z,12.60
2019-04-05T05:06:10.355Z,12.90
2019-04-05T05:11:15.137Z,13.50
2019-04-05T05:16:18.917Z,13.40
2019-04-05T05:21:22.573Z,13.90
2019-04-05T05:26:26.425Z,13.80
2019-04-05T05:31:30.129Z,13.70
2019-04-05T05:36:33.982Z,14.60
2019-04-05T05:41:37.688Z,14.60
2019-04-05T05:46:41.432Z,15.20
2019-04-05T05:51:46.251Z,15.40
2019-04-05T05:56:49.836Z,15.80
2019-04-05T06:01:53.510Z,15.30
2019-04-05T06:06:57.179Z,15.00
2019-04-05T06:12:00.896Z,15.00
2019-04-05T06:17:04.636Z,15.50
2019-04-05T06:22:08.259Z,14.90
2019-04-05T06:27:11.936Z,15.00
2019-04-05T06:32:15.617Z,15.00
2019-04-05T06:37:19.287Z,15.10
2019-04-05T06:42:22.886Z,14.80
2019-04-05T06:47:26.477Z,15.10
2019-04-05T06:52:30.128Z,15.20
2019-04-05T06:57:33.775Z,15.30
2019-04-05T07:02:37.397Z,15.60
2019-04-05T07:07:41.045Z,15.40
2019-04-05T07:12:44.739Z,15.60
2019-04-05T07:17:48.340Z,15.60
2019-04-05T07:22:51.920Z,16.00
2019-04-05T07:27:55.520Z,16.30
2019-04-05T07:32:59.071Z,16.30
2019-04-05T07:38:03.629Z,16.10
2019-04-05T07:43:07.326Z,16.50
2019-04-05T07:48:10.988Z,17.00
2019-04-05T07:53:14.640Z,17.20
2019-04-05T07:58:18.241Z,17.10
2019-04-05T08:03:22.932Z,17.30
2019-04-05T08:08:38.253Z,17.50
2019-04-05T08:13:43.858Z,17.60
2019-04-05T08:18:56.957Z,17.50
2019-04-05T08:23:52.712Z,17.60
2019-04-05T08:28:56.295Z,17.40
2019-04-05T08:33:59.952Z,17.40
2019-04-05T08:39:06.228Z,17.60
2019-04-05T08:44:10.029Z,17.70
2019-04-05T08:49:13.686Z,18.20
2019-04-05T08:54:17.272Z,18.20
2019-04-05T08:59:20.883Z,18.60
2019-04-05T09:04:24.528Z,18.60
2019-04-05T09:09:28.196Z,18.60
2019-04-05T09:14:31.885Z,18.60
2019-04-05T09:19:35.483Z,18.80
2019-04-05T09:24:39.136Z,18.60
2019-04-05T09:29:42.809Z,18.70
2019-04-05T09:34:46.375Z,18.30
2019-04-05T09:39:49.941Z,18.80
2019-04-05T09:44:53.525Z,19.10
2019-04-05T09:49:57.127Z,18.70
2019-04-05T09:55:00.744Z,19.10
2019-04-05T10:00:11.895Z,19.20
2019-04-05T10:05:15.425Z,19.40
2019-04-05T10:10:19.775Z,19.10
2019-04-05T10:15:23.408Z,19.60
2019-04-05T10:20:27.079Z,19.70
2019-04-05T10:25:30.645Z,19.60
2019-04-05T10:30:34.320Z,19.50
2019-04-05T10:35:37.960Z,19.50
2019-04-05T10:40:42.576Z,19.60
2019-04-05T10:45:46.799Z,20.20
2019-04-05T10:50:50.670Z,19.80
2019-04-05T10:55:54.341Z,19.90
2019-04-05T11:00:58.928Z,19.80
2019-04-05T11:06:02.573Z,19.60
2019-04-05T11:11:06.468Z,19.80
2019-04-05T11:16:10.219Z,20.00
2019-04-05T11:21:13.840Z,19.10
2019-04-05T11:26:17.424Z,19.30
2019-04-05T11:31:21.153Z,19.40
2019-04-05T11:36:25.473Z,19.30
2019-04-05T11:41:30.223Z,19.70
2019-04-05T11:46:36.518Z,19.60
2019-04-05T11:51:39.412Z,19.10
2019-04-05T11:56:42.992Z,18.90
2019-04-05T12:01:48.339Z,18.50
2019-04-05T12:06:52.561Z,18.40
2019-04-05T12:11:56.243Z,18.30
2019-04-05T12:16:59.981Z,18.10
2019-04-05T12:22:05.274Z,18.50
2019-04-05T12:27:09.137Z,19.20
2019-04-05T12:32:17.915Z,19.30
2019-04-05T12:37:21.865Z,18.20
2019-04-05T12:42:24.427Z,18.20
2019-04-05T12:47:28.140Z,17.80
2019-04-05T12:52:31.731Z,18.80
2019-04-05T12:57:35.574Z,18.30
2019-04-05T13:02:39.208Z,19.40
2019-04-05T13:07:42.851Z,19.60
2019-04-05T13:12:46.539Z,19.50
2019-04-05T13:17:50.210Z,19.70
2019-04-05T13:22:53.898Z,19.30
2019-04-05T13:27:57.572Z,20.10
2019-04-05T13:33:01.321Z,20.40
2019-04-05T13:38:05.130Z,20.40
2019-04-05T13:43:08.840Z,20.00
2019-04-05T13:48:12.613Z,19.70
2019-04-05T13:53:16.307Z,19.60
2019-04-05T13:58:19.934Z,19.30
2019-04-05T14:03:23.586Z,19.20
2019-04-05T14:08:27.225Z,19.00
2019-04-05T14:13:30.810Z,18.80
2019-04-05T14:18:34.455Z,18.50
2019-04-05T14:23:38.113Z,18.50
2019-04-05T14:28:41.803Z,18.40
2019-04-05T14:33:45.510Z,18.30
2019-04-05T14:38:49.321Z,18.20
2019-04-05T14:43:52.971Z,18.20
2019-04-05T14:48:58.443Z,18.10
2019-04-05T14:54:02.430Z,18.00
2019-04-05T14:59:06.192Z,18.00
2019-04-05T15:04:11.988Z,18.10
2019-04-05T15:09:15.219Z,18.20
2019-04-05T15:14:18.945Z,18.20
2019-04-05T15:19:22.612Z,18.10
2019-04-05T15:24:26.208Z,17.80
2019-04-05T15:29:29.813Z,17.50
2019-04-05T15:34:33.517Z,17.20
2019-04-05T15:39:37.195Z,17.40
2019-04-05T15:44:40.919Z,17.50
2019-04-05T15:49:44.614Z,17.70
2019-04-05T15:54:48.200Z,17.70
2019-04-05T15:59:53.512Z,17.40
2019-04-05T16:04:57.230Z,17.30
2019-04-05T16:10:00.910Z,17.40
2019-04-05T16:15:06.216Z,17.20
2019-04-05T16:20:10.968Z,17.20
2019-04-05T16:25:15.980Z,17.20
2019-04-05T16:30:20.644Z,16.90
2019-04-05T16:35:24.365Z,16.70
2019-04-05T16:40:31.221Z,16.50
2019-04-05T16:45:33.879Z,16.10
2019-04-05T16:50:37.590Z,15.40
2019-04-05T16:55:41.394Z,15.30
2019-04-05T17:00:45.835Z,15.50
2019-04-05T17:05:49.558Z,15.70
2019-04-05T17:10:53.332Z,15.70
2019-04-05T17:15:57.019Z,15.60
2019-04-05T17:21:00.931Z,15.50
2019-04-05T17:26:04.751Z,15.30
2019-04-05T17:31:08.477Z,15.10
2019-04-05T17:36:12.136Z,14.70
2019-04-05T17:41:15.830Z,14.80
2019-04-05T17:52:43.201Z,14.70
2019-04-05T17:57:48.745Z,14.30
2019-04-05T18:02:52.473Z,14.00
2019-04-05T18:07:56.218Z,13.70
2019-04-05T18:12:59.832Z,13.50
2019-04-05T18:18:03.482Z,13.00
2019-04-05T18:23:07.148Z,12.70
2019-04-05T18:28:10.754Z,12.70
2019-04-05T18:33:14.489Z,12.90
2019-04-05T18:38:18.080Z,13.10
2019-04-05T18:43:21.761Z,13.40
2019-04-05T18:48:25.415Z,13.40
2019-04-05T18:53:37.431Z,13.30
2019-04-05T18:58:34.550Z,13.10
2019-04-05T19:03:38.146Z,13.30
2019-04-05T19:08:41.887Z,12.80
2019-04-05T19:13:45.796Z,12.60
2019-04-05T19:18:49.379Z,13.00
2019-04-05T19:23:53.141Z,13.00
2019-04-05T19:28:56.870Z,12.60
2019-04-05T19:49:17.956Z,11.90
2019-04-05T19:54:21.694Z,10.70
2019-04-05T19:59:25.370Z,11.00
2019-04-05T20:04:28.965Z,11.40
2019-04-05T20:09:32.643Z,11.40
2019-04-05T20:14:36.360Z,11.50
2019-04-05T20:19:39.975Z,11.30
2019-04-05T20:24:43.641Z,11.40
2019-04-05T20:29:47.310Z,11.50
2019-04-05T20:34:50.896Z,10.40
2019-04-05T20:39:54.477Z,9.60
2019-04-05T20:44:58.197Z,8.90
2019-04-05T20:50:01.935Z,9.00
2019-04-05T20:55:07.181Z,9.80
2019-04-05T21:00:13.171Z,10.10
2019-04-05T21:05:24.855Z,10.20
2019-04-05T21:10:22.838Z,10.30
2019-04-05T21:15:26.496Z,10.10
2019-04-05T21:20:30.280Z,10.10
2019-04-05T21:25:33.979Z,9.90
2019-04-05T21:30:37.566Z,10.00
2019-04-05T21:35:41.219Z,9.30
2019-04-05T21:40:44.889Z,9.50
2019-04-05T21:45:48.588Z,9.50
2019-04-05T21:50:52.137Z,9.40
2019-04-05T21:55:55.825Z,9.00
2019-04-05T22:01:01.395Z,8.80
2019-04-05T22:06:05.337Z,8.50
2019-04-05T22:11:08.920Z,8.70
2019-04-05T22:16:12.598Z,8.00
2019-04-05T22:21:16.210Z,7.70
2019-04-05T22:26:19.810Z,8.00
2019-04-05T22:31:23.408Z,8.20
2019-04-05T22:36:27.093Z,8.20
2019-04-05T22:41:30.720Z,8.40
2019-04-05T22:46:34.325Z,8.40
2019-04-05T22:51:37.908Z,8.40
2019-04-05T22:56:41.494Z,8.50
2019-04-05T23:01:45.099Z,7.80
2019-04-05T23:06:48.718Z,7.70
2019-04-05T23:11:52.322Z,7.50
2019-04-05T23:16:55.997Z,7.70
2019-04-05T23:22:00.965Z,7.00
2019-04-05T23:27:04.880Z,7.00
2019-04-05T23:32:08.585Z,7.30
2019-04-05T23:37:12.158Z,7.30
2019-04-05T23:42:15.735Z,7.50
2019-04-05T23:47:19.349Z,7.40
2019-04-05T23:52:22.997Z,7.30
2019-04-05T23:57:26.684Z,7.30
